sensor_id;sensor_type;location;lat;lon;timestamp;noise_LAeq;noise_LA_min;noise_LA_max;noise_LA01;noise_LA95
67322;Laerm;57666;51.436;5.978;2024-03-17T00:00:08;53.04;38.44;63.71;;
67322;Laerm;57666;51.436;5.978;2024-03-17T00:00:24;50.07;38.10;66.95;;
67322;Laerm;57666;51.436;5.978;2024-03-17T00:00:34;49.57;41.43;61.68;;
67322;Laerm;57666;51.436;5.978;2024-03-17T00:00:45;51.73;42.31;64.18;;
67322;Laerm;57666;51.436;5.978;2024-03-17T00:00:55;58.01;42.62;75.89;;
67322;Laerm;57666;51.436;5.978;2024-03-17T00:01:05;47.79;42.33;59.74;;
67322;Laerm;57666;51.436;5.978;2024-03-17T00:01:16;53.10;42.52;64.93;;
67322;Laerm;57666;51.436;5.978;2024-03-17T00:01:30;47.83;42.06;57.39;;
67322;Laerm;57666;51.436;5.978;2024-03-17T00:01:40;46.69;40.47;57.00;;
67322;Laerm;57666;51.436;5.978;2024-03-17T00:01:51;48.80;39.72;62.41;;
67322;Laerm;57666;51.436;5.978;2024-03-17T00:02:01;53.38;39.48;64.35;;
67322;Laerm;57666;51.436;5.978;2024-03-17T00:02:15;59.20;38.57;75.86;;
67322;Laerm;57666;51.436;5.978;2024-03-17T00:02:25;50.99;38.47;60.24;;
67322;Laerm;57666;51.436;5.978;2024-03-17T00:02:35;47.62;38.56;57.91;;
67322;Laerm;57666;51.436;5.978;2024-03-17T00:02:47;50.83;38.08;70.07;;
67322;Laerm;57666;51.436;5.978;2024-03-17T00:02:57;43.10;38.59;54.40;;
67322;Laerm;57666;51.436;5.978;2024-03-17T00:03:08;47.18;38.38;61.65;;
67322;Laerm;57666;51.436;5.978;2024-03-17T00:03:18;47.69;37.83;58.04;;
67322;Laerm;57666;51.436;5.978;2024-03-17T00:03:29;46.25;38.17;58.41;;
67322;Laerm;57666;51.436;5.978;2024-03-17T00:03:40;49.72;38.76;59.97;;
67322;Laerm;57666;51.436;5.978;2024-03-17T00:03:50;49.05;37.90;59.25;;
67322;Laerm;57666;51.436;5.978;2024-03-17T00:04:01;47.50;37.50;57.67;;
67322;Laerm;57666;51.436;5.978;2024-03-17T00:04:12;47.32;38.31;58.62;;
67322;Laerm;57666;51.436;5.978;2024-03-17T00:04:23;46.82;38.21;57.00;;
67322;Laerm;57666;51.436;5.978;2024-03-17T00:04:37;49.40;37.35;64.94;;
67322;Laerm;57666;51.436;5.978;2024-03-17T00:04:48;47.38;38.84;56.23;;
67322;Laerm;57666;51.436;5.978;2024-03-17T00:04:58;51.98;38.70;61.40;;
67322;Laerm;57666;51.436;5.978;2024-03-17T00:05:08;50.46;38.71;66.15;;
67322;Laerm;57666;51.436;5.978;2024-03-17T00:05:18;48.54;38.61;58.84;;
67322;Laerm;57666;51.436;5.978;2024-03-17T00:05:29;50.75;38.63;62.71;;
67322;Laerm;57666;51.436;5.978;2024-03-17T00:05:39;51.53;38.38;65.67;;
67322;Laerm;57666;51.436;5.978;2024-03-17T00:05:54;45.78;38.80;58.12;;
67322;Laerm;57666;51.436;5.978;2024-03-17T00:06:05;52.32;39.62;65.37;;
67322;Laerm;57666;51.436;5.978;2024-03-17T00:06:15;52.16;38.60;64.27;;
67322;Laerm;57666;51.436;5.978;2024-03-17T00:06:27;49.46;37.88;62.84;;
67322;Laerm;57666;51.436;5.978;2024-03-17T00:06:38;45.32;38.26;54.06;;
67322;Laerm;57666;51.436;5.978;2024-03-17T00:06:48;50.29;38.60;60.89;;
67322;Laerm;57666;51.436;5.978;2024-03-17T00:06:58;50.08;40.00;59.64;;
67322;Laerm;57666;51.436;5.978;2024-03-17T00:07:09;53.05;39.51;65.76;;
67322;Laerm;57666;51.436;5.978;2024-03-17T00:07:19;55.50;38.74;67.71;;
67322;Laerm;57666;51.436;5.978;2024-03-17T00:07:30;45.31;38.22;57.15;;
67322;Laerm;57666;51.436;5.978;2024-03-17T00:07:40;44.43;38.84;52.75;;
67322;Laerm;57666;51.436;5.978;2024-03-17T00:07:50;43.00;38.42;52.19;;
67322;Laerm;57666;51.436;5.978;2024-03-17T00:08:01;44.12;38.07;55.14;;
67322;Laerm;57666;51.436;5.978;2024-03-17T00:08:14;44.44;38.56;52.54;;
67322;Laerm;57666;51.436;5.978;2024-03-17T00:08:25;47.36;38.76;57.35;;
67322;Laerm;57666;51.436;5.978;2024-03-17T00:08:35;44.90;38.34;54.19;;
67322;Laerm;57666;51.436;5.978;2024-03-17T00:08:46;46.84;38.99;57.05;;
67322;Laerm;57666;51.436;5.978;2024-03-17T00:08:56;44.16;38.63;54.82;;
67322;Laerm;57666;51.436;5.978;2024-03-17T00:09:07;47.83;38.90;60.34;;
67322;Laerm;57666;51.436;5.978;2024-03-17T00:09:19;47.84;38.95;58.69;;
67322;Laerm;57666;51.436;5.978;2024-03-17T00:09:30;46.49;38.81;55.59;;
67322;Laerm;57666;51.436;5.978;2024-03-17T00:09:40;66.05;39.06;80.24;;
67322;Laerm;57666;51.436;5.978;2024-03-17T00:09:51;65.56;39.57;76.80;;
67322;Laerm;57666;51.436;5.978;2024-03-17T00:10:01;46.02;38.40;60.53;;
67322;Laerm;57666;51.436;5.978;2024-03-17T00:10:12;49.62;39.36;62.47;;
67322;Laerm;57666;51.436;5.978;2024-03-17T00:10:22;47.97;39.24;57.69;;
67322;Laerm;57666;51.436;5.978;2024-03-17T00:10:32;46.63;38.41;58.97;;
67322;Laerm;57666;51.436;5.978;2024-03-17T00:10:43;49.42;39.09;58.52;;
67322;Laerm;57666;51.436;5.978;2024-03-17T00:10:54;45.83;39.21;57.10;;
67322;Laerm;57666;51.436;5.978;2024-03-17T00:11:07;48.30;38.33;59.01;;
67322;Laerm;57666;51.436;5.978;2024-03-17T00:11:17;47.41;37.82;61.75;;
67322;Laerm;57666;51.436;5.978;2024-03-17T00:11:28;46.70;37.10;58.12;;
67322;Laerm;57666;51.436;5.978;2024-03-17T00:11:38;48.51;38.50;64.19;;
67322;Laerm;57666;51.436;5.978;2024-03-17T00:11:48;50.96;39.17;67.84;;
67322;Laerm;57666;51.436;5.978;2024-03-17T00:11:59;46.75;39.27;57.89;;
67322;Laerm;57666;51.436;5.978;2024-03-17T00:12:09;46.27;38.81;57.16;;
67322;Laerm;57666;51.436;5.978;2024-03-17T00:12:20;47.46;39.26;62.47;;
67322;Laerm;57666;51.436;5.978;2024-03-17T00:12:30;46.44;39.61;57.27;;
67322;Laerm;57666;51.436;5.978;2024-03-17T00:12:44;45.32;38.11;57.63;;
67322;Laerm;57666;51.436;5.978;2024-03-17T00:12:55;45.28;39.11;55.85;;
67322;Laerm;57666;51.436;5.978;2024-03-17T00:13:05;44.73;38.25;54.50;;
67322;Laerm;57666;51.436;5.978;2024-03-17T00:13:16;45.02;38.78;54.29;;
67322;Laerm;57666;51.436;5.978;2024-03-17T00:13:27;47.93;38.36;59.65;;
67322;Laerm;57666;51.436;5.978;2024-03-17T00:13:37;49.57;38.63;59.08;;
67322;Laerm;57666;51.436;5.978;2024-03-17T00:13:48;46.14;38.80;55.10;;
67322;Laerm;57666;51.436;5.978;2024-03-17T00:14:03;44.09;38.49;58.52;;
67322;Laerm;57666;51.436;5.978;2024-03-17T00:14:15;43.62;38.76;54.99;;
67322;Laerm;57666;51.436;5.978;2024-03-17T00:14:26;43.88;39.05;53.07;;
67322;Laerm;57666;51.436;5.978;2024-03-17T00:14:38;45.42;38.45;57.91;;
67322;Laerm;57666;51.436;5.978;2024-03-17T00:14:49;42.38;38.29;50.46;;
67322;Laerm;57666;51.436;5.978;2024-03-17T00:14:59;43.53;38.00;56.04;;
67322;Laerm;57666;51.436;5.978;2024-03-17T00:15:09;49.40;39.27;59.03;;
67322;Laerm;57666;51.436;5.978;2024-03-17T00:15:20;54.18;39.48;66.43;;
67322;Laerm;57666;51.436;5.978;2024-03-17T00:15:31;45.42;39.22;54.83;;
67322;Laerm;57666;51.436;5.978;2024-03-17T00:15:42;43.69;38.53;56.06;;
67322;Laerm;57666;51.436;5.978;2024-03-17T00:15:52;42.07;38.52;52.45;;
67322;Laerm;57666;51.436;5.978;2024-03-17T00:16:03;52.33;39.26;63.41;;
67322;Laerm;57666;51.436;5.978;2024-03-17T00:16:14;44.37;40.41;53.40;;
67322;Laerm;57666;51.436;5.978;2024-03-17T00:16:28;44.04;38.55;57.55;;
67322;Laerm;57666;51.436;5.978;2024-03-17T00:16:39;43.25;38.68;54.22;;
67322;Laerm;57666;51.436;5.978;2024-03-17T00:16:49;45.43;38.98;55.74;;
67322;Laerm;57666;51.436;5.978;2024-03-17T00:17:02;45.03;38.02;56.35;;
67322;Laerm;57666;51.436;5.978;2024-03-17T00:17:13;47.73;39.43;58.84;;
67322;Laerm;57666;51.436;5.978;2024-03-17T00:17:25;44.01;38.06;52.37;;
67322;Laerm;57666;51.436;5.978;2024-03-17T00:17:35;45.86;37.87;54.80;;
67322;Laerm;57666;51.436;5.978;2024-03-17T00:17:46;51.84;38.94;65.54;;
67322;Laerm;57666;51.436;5.978;2024-03-17T00:17:57;44.16;38.68;55.75;;
67322;Laerm;57666;51.436;5.978;2024-03-17T00:18:07;45.01;38.78;54.20;;
67322;Laerm;57666;51.436;5.978;2024-03-17T00:18:19;43.29;38.29;52.48;;
67322;Laerm;57666;51.436;5.978;2024-03-17T00:18:29;44.11;38.73;57.43;;
67322;Laerm;57666;51.436;5.978;2024-03-17T00:18:43;47.37;38.39;56.55;;
67322;Laerm;57666;51.436;5.978;2024-03-17T00:18:54;51.35;37.70;66.00;;
67322;Laerm;57666;51.436;5.978;2024-03-17T00:19:06;50.58;38.67;62.29;;
67322;Laerm;57666;51.436;5.978;2024-03-17T00:19:16;49.65;38.97;59.25;;
67322;Laerm;57666;51.436;5.978;2024-03-17T00:19:29;48.08;38.37;58.63;;
67322;Laerm;57666;51.436;5.978;2024-03-17T00:19:40;48.99;40.04;58.68;;
67322;Laerm;57666;51.436;5.978;2024-03-17T00:19:50;51.39;39.72;67.61;;
67322;Laerm;57666;51.436;5.978;2024-03-17T00:20:01;57.62;39.36;69.37;;
67322;Laerm;57666;51.436;5.978;2024-03-17T00:20:19;50.21;39.39;61.72;;
67322;Laerm;57666;51.436;5.978;2024-03-17T00:20:30;47.22;38.40;59.76;;
67322;Laerm;57666;51.436;5.978;2024-03-17T00:20:42;51.99;38.92;63.56;;
67322;Laerm;57666;51.436;5.978;2024-03-17T00:20:53;49.48;38.31;62.92;;
67322;Laerm;57666;51.436;5.978;2024-03-17T00:21:04;49.51;41.14;60.96;;
67322;Laerm;57666;51.436;5.978;2024-03-17T00:21:14;49.17;38.76;60.48;;
67322;Laerm;57666;51.436;5.978;2024-03-17T00:21:24;51.16;39.57;61.73;;
67322;Laerm;57666;51.436;5.978;2024-03-17T00:21:36;51.34;38.99;67.75;;
67322;Laerm;57666;51.436;5.978;2024-03-17T00:21:46;49.33;39.49;62.52;;
67322;Laerm;57666;51.436;5.978;2024-03-17T00:21:57;51.84;38.37;63.73;;
67322;Laerm;57666;51.436;5.978;2024-03-17T00:22:07;48.10;38.15;61.45;;
67322;Laerm;57666;51.436;5.978;2024-03-17T00:22:23;47.67;38.45;60.28;;
67322;Laerm;57666;51.436;5.978;2024-03-17T00:22:35;51.90;39.28;62.39;;
67322;Laerm;57666;51.436;5.978;2024-03-17T00:22:49;50.39;39.35;64.64;;
67322;Laerm;57666;51.436;5.978;2024-03-17T00:23:01;46.64;37.82;59.06;;
67322;Laerm;57666;51.436;5.978;2024-03-17T00:23:11;50.78;38.76;62.85;;
67322;Laerm;57666;51.436;5.978;2024-03-17T00:23:22;45.98;38.84;56.47;;
67322;Laerm;57666;51.436;5.978;2024-03-17T00:23:32;45.74;38.43;55.90;;
67322;Laerm;57666;51.436;5.978;2024-03-17T00:23:43;48.47;37.80;60.87;;
67322;Laerm;57666;51.436;5.978;2024-03-17T00:23:53;47.56;38.56;62.22;;
67322;Laerm;57666;51.436;5.978;2024-03-17T00:24:03;50.05;38.64;64.61;;
67322;Laerm;57666;51.436;5.978;2024-03-17T00:24:14;46.51;38.42;57.16;;
67322;Laerm;57666;51.436;5.978;2024-03-17T00:24:24;50.27;38.44;59.79;;
67322;Laerm;57666;51.436;5.978;2024-03-17T00:24:35;45.66;39.44;56.72;;
67322;Laerm;57666;51.436;5.978;2024-03-17T00:24:45;47.53;38.96;59.13;;
67322;Laerm;57666;51.436;5.978;2024-03-17T00:24:56;50.52;38.21;68.29;;
67322;Laerm;57666;51.436;5.978;2024-03-17T00:25:07;49.11;38.75;62.81;;
67322;Laerm;57666;51.436;5.978;2024-03-17T00:25:18;47.48;38.70;57.68;;
67322;Laerm;57666;51.436;5.978;2024-03-17T00:25:28;43.43;38.13;52.74;;
67322;Laerm;57666;51.436;5.978;2024-03-17T00:25:39;41.55;37.93;49.61;;
67322;Laerm;57666;51.436;5.978;2024-03-17T00:25:50;42.27;38.69;51.71;;
67322;Laerm;57666;51.436;5.978;2024-03-17T00:26:01;44.08;38.78;50.92;;
67322;Laerm;57666;51.436;5.978;2024-03-17T00:26:11;47.39;39.00;59.28;;
67322;Laerm;57666;51.436;5.978;2024-03-17T00:26:21;44.58;38.56;56.32;;
67322;Laerm;57666;51.436;5.978;2024-03-17T00:26:32;46.31;39.72;60.15;;
67322;Laerm;57666;51.436;5.978;2024-03-17T00:26:44;46.03;38.89;55.98;;
67322;Laerm;57666;51.436;5.978;2024-03-17T00:26:55;44.65;39.58;55.48;;
67322;Laerm;57666;51.436;5.978;2024-03-17T00:27:05;44.44;38.73;55.22;;
67322;Laerm;57666;51.436;5.978;2024-03-17T00:27:16;41.84;37.94;51.00;;
67322;Laerm;57666;51.436;5.978;2024-03-17T00:27:26;44.05;39.18;56.19;;
67322;Laerm;57666;51.436;5.978;2024-03-17T00:27:37;44.21;39.24;54.16;;
67322;Laerm;57666;51.436;5.978;2024-03-17T00:27:51;46.63;38.93;60.25;;
67322;Laerm;57666;51.436;5.978;2024-03-17T00:28:05;45.88;38.49;54.63;;
67322;Laerm;57666;51.436;5.978;2024-03-17T00:28:15;44.24;38.49;55.18;;
67322;Laerm;57666;51.436;5.978;2024-03-17T00:28:26;44.78;38.90;57.97;;
67322;Laerm;57666;51.436;5.978;2024-03-17T00:28:36;43.73;38.17;51.61;;
67322;Laerm;57666;51.436;5.978;2024-03-17T00:28:46;46.39;39.01;57.51;;
67322;Laerm;57666;51.436;5.978;2024-03-17T00:29:00;44.49;38.58;52.63;;
67322;Laerm;57666;51.436;5.978;2024-03-17T00:29:10;43.81;38.12;51.82;;
67322;Laerm;57666;51.436;5.978;2024-03-17T00:29:21;48.24;38.26;58.84;;
67322;Laerm;57666;51.436;5.978;2024-03-17T00:29:31;48.53;38.64;58.29;;
67322;Laerm;57666;51.436;5.978;2024-03-17T00:29:42;54.93;39.63;67.79;;
67322;Laerm;57666;51.436;5.978;2024-03-17T00:29:52;55.13;39.58;67.33;;
67322;Laerm;57666;51.436;5.978;2024-03-17T00:30:03;47.19;39.19;54.77;;
67322;Laerm;57666;51.436;5.978;2024-03-17T00:30:19;44.61;38.34;59.00;;
67322;Laerm;57666;51.436;5.978;2024-03-17T00:30:30;41.56;37.85;49.22;;
67322;Laerm;57666;51.436;5.978;2024-03-17T00:30:41;44.68;38.31;58.00;;
67322;Laerm;57666;51.436;5.978;2024-03-17T00:30:51;47.10;38.30;57.85;;
67322;Laerm;57666;51.436;5.978;2024-03-17T00:31:03;43.52;38.94;51.37;;
67322;Laerm;57666;51.436;5.978;2024-03-17T00:31:13;42.54;37.84;49.69;;
67322;Laerm;57666;51.436;5.978;2024-03-17T00:31:24;42.66;38.65;54.08;;
67322;Laerm;57666;51.436;5.978;2024-03-17T00:31:35;41.35;37.87;48.24;;
67322;Laerm;57666;51.436;5.978;2024-03-17T00:31:47;44.55;39.06;54.45;;
67322;Laerm;57666;51.436;5.978;2024-03-17T00:31:57;44.49;38.65;55.32;;
67322;Laerm;57666;51.436;5.978;2024-03-17T00:32:08;43.14;38.26;51.94;;
67322;Laerm;57666;51.436;5.978;2024-03-17T00:32:18;45.19;39.33;55.08;;
67322;Laerm;57666;51.436;5.978;2024-03-17T00:32:28;43.42;38.14;55.10;;
67322;Laerm;57666;51.436;5.978;2024-03-17T00:32:39;42.91;38.58;54.45;;
67322;Laerm;57666;51.436;5.978;2024-03-17T00:32:50;42.46;38.96;47.00;;
67322;Laerm;57666;51.436;5.978;2024-03-17T00:33:00;44.52;38.91;52.57;;
67322;Laerm;57666;51.436;5.978;2024-03-17T00:33:10;43.73;38.59;52.08;;
67322;Laerm;57666;51.436;5.978;2024-03-17T00:33:21;44.56;39.00;55.47;;
67322;Laerm;57666;51.436;5.978;2024-03-17T00:33:31;46.66;38.77;61.79;;
67322;Laerm;57666;51.436;5.978;2024-03-17T00:33:43;52.53;39.25;68.12;;
67322;Laerm;57666;51.436;5.978;2024-03-17T00:33:54;50.33;38.76;68.67;;
67322;Laerm;57666;51.436;5.978;2024-03-17T00:34:04;42.08;38.79;49.11;;
67322;Laerm;57666;51.436;5.978;2024-03-17T00:34:17;47.70;38.32;59.66;;
67322;Laerm;57666;51.436;5.978;2024-03-17T00:34:29;44.11;38.56;54.71;;
67322;Laerm;57666;51.436;5.978;2024-03-17T00:34:39;44.45;39.24;55.18;;
67322;Laerm;57666;51.436;5.978;2024-03-17T00:34:49;42.70;38.51;49.18;;
67322;Laerm;57666;51.436;5.978;2024-03-17T00:35:00;45.37;38.20;58.14;;
67322;Laerm;57666;51.436;5.978;2024-03-17T00:35:11;42.51;37.96;57.41;;
67322;Laerm;57666;51.436;5.978;2024-03-17T00:35:24;42.89;38.43;51.22;;
67322;Laerm;57666;51.436;5.978;2024-03-17T00:35:35;42.18;38.42;50.91;;
67322;Laerm;57666;51.436;5.978;2024-03-17T00:35:46;46.17;38.72;58.06;;
67322;Laerm;57666;51.436;5.978;2024-03-17T00:35:58;47.50;38.24;63.57;;
67322;Laerm;57666;51.436;5.978;2024-03-17T00:36:09;48.69;38.79;61.99;;
67322;Laerm;57666;51.436;5.978;2024-03-17T00:36:19;46.03;38.26;58.30;;
67322;Laerm;57666;51.436;5.978;2024-03-17T00:36:30;51.47;38.23;68.20;;
67322;Laerm;57666;51.436;5.978;2024-03-17T00:36:41;44.44;38.06;55.87;;
67322;Laerm;57666;51.436;5.978;2024-03-17T00:36:52;47.81;38.70;56.44;;
67322;Laerm;57666;51.436;5.978;2024-03-17T00:37:02;48.29;38.50;59.72;;
67322;Laerm;57666;51.436;5.978;2024-03-17T00:37:13;44.53;38.61;53.50;;
67322;Laerm;57666;51.436;5.978;2024-03-17T00:37:23;43.94;38.13;56.35;;
67322;Laerm;57666;51.436;5.978;2024-03-17T00:37:33;43.74;38.47;51.18;;
67322;Laerm;57666;51.436;5.978;2024-03-17T00:37:44;54.74;38.46;70.38;;
67322;Laerm;57666;51.436;5.978;2024-03-17T00:37:54;49.53;40.04;59.06;;
67322;Laerm;57666;51.436;5.978;2024-03-17T00:38:04;51.12;38.12;67.81;;
67322;Laerm;57666;51.436;5.978;2024-03-17T00:38:20;47.53;38.87;61.84;;
67322;Laerm;57666;51.436;5.978;2024-03-17T00:38:30;48.21;38.67;61.33;;
67322;Laerm;57666;51.436;5.978;2024-03-17T00:38:40;51.02;39.39;62.32;;
67322;Laerm;57666;51.436;5.978;2024-03-17T00:38:51;53.99;39.36;66.15;;
67322;Laerm;57666;51.436;5.978;2024-03-17T00:39:04;57.73;38.22;72.46;;
67322;Laerm;57666;51.436;5.978;2024-03-17T00:39:14;55.45;37.75;69.62;;
67322;Laerm;57666;51.436;5.978;2024-03-17T00:39:25;49.59;38.44;61.25;;
67322;Laerm;57666;51.436;5.978;2024-03-17T00:39:35;48.39;38.67;61.10;;
67322;Laerm;57666;51.436;5.978;2024-03-17T00:39:46;45.97;38.73;61.49;;
67322;Laerm;57666;51.436;5.978;2024-03-17T00:39:56;45.03;38.68;59.69;;
67322;Laerm;57666;51.436;5.978;2024-03-17T00:40:07;49.18;38.41;63.14;;
67322;Laerm;57666;51.436;5.978;2024-03-17T00:40:17;49.59;38.58;61.23;;
67322;Laerm;57666;51.436;5.978;2024-03-17T00:40:28;43.41;38.98;53.07;;
67322;Laerm;57666;51.436;5.978;2024-03-17T00:40:41;55.36;38.25;69.74;;
67322;Laerm;57666;51.436;5.978;2024-03-17T00:40:51;58.55;38.58;72.50;;
67322;Laerm;57666;51.436;5.978;2024-03-17T00:41:02;52.03;38.99;63.08;;
67322;Laerm;57666;51.436;5.978;2024-03-17T00:41:13;50.18;39.31;60.93;;
67322;Laerm;57666;51.436;5.978;2024-03-17T00:41:23;53.91;38.86;67.75;;
67322;Laerm;57666;51.436;5.978;2024-03-17T00:41:33;47.61;38.87;61.52;;
67322;Laerm;57666;51.436;5.978;2024-03-17T00:41:44;48.71;39.14;61.63;;
67322;Laerm;57666;51.436;5.978;2024-03-17T00:41:55;47.21;39.17;58.31;;
67322;Laerm;57666;51.436;5.978;2024-03-17T00:42:05;56.23;39.18;71.88;;
67322;Laerm;57666;51.436;5.978;2024-03-17T00:42:16;51.54;38.72;69.67;;
67322;Laerm;57666;51.436;5.978;2024-03-17T00:42:27;52.44;38.83;67.22;;
67322;Laerm;57666;51.436;5.978;2024-03-17T00:42:37;54.68;38.24;68.86;;
67322;Laerm;57666;51.436;5.978;2024-03-17T00:42:48;55.62;39.31;68.87;;
67322;Laerm;57666;51.436;5.978;2024-03-17T00:42:59;50.81;38.78;62.60;;
67322;Laerm;57666;51.436;5.978;2024-03-17T00:43:09;46.44;37.97;60.18;;
67322;Laerm;57666;51.436;5.978;2024-03-17T00:43:21;53.92;39.09;68.82;;
67322;Laerm;57666;51.436;5.978;2024-03-17T00:43:32;52.16;38.45;66.16;;
67322;Laerm;57666;51.436;5.978;2024-03-17T00:43:42;51.19;39.28;62.41;;
67322;Laerm;57666;51.436;5.978;2024-03-17T00:43:52;50.21;37.68;61.78;;
67322;Laerm;57666;51.436;5.978;2024-03-17T00:44:03;47.84;38.08;60.54;;
67322;Laerm;57666;51.436;5.978;2024-03-17T00:44:13;45.91;38.22;56.34;;
67322;Laerm;57666;51.436;5.978;2024-03-17T00:44:23;44.20;38.88;54.09;;
67322;Laerm;57666;51.436;5.978;2024-03-17T00:44:34;46.51;38.76;58.22;;
67322;Laerm;57666;51.436;5.978;2024-03-17T00:44:45;52.97;38.55;66.60;;
67322;Laerm;57666;51.436;5.978;2024-03-17T00:44:56;44.42;38.70;56.83;;
67322;Laerm;57666;51.436;5.978;2024-03-17T00:45:06;46.92;39.04;59.20;;
67322;Laerm;57666;51.436;5.978;2024-03-17T00:45:16;46.19;38.12;59.27;;
67322;Laerm;57666;51.436;5.978;2024-03-17T00:45:27;45.40;38.61;58.78;;
67322;Laerm;57666;51.436;5.978;2024-03-17T00:45:37;47.39;39.04;59.89;;
67322;Laerm;57666;51.436;5.978;2024-03-17T00:45:51;46.37;39.15;55.95;;
67322;Laerm;57666;51.436;5.978;2024-03-17T00:46:01;42.80;37.99;55.61;;
67322;Laerm;57666;51.436;5.978;2024-03-17T00:46:12;42.29;38.44;49.63;;
67322;Laerm;57666;51.436;5.978;2024-03-17T00:46:23;42.77;38.72;49.95;;
67322;Laerm;57666;51.436;5.978;2024-03-17T00:46:34;40.12;37.53;47.50;;
67322;Laerm;57666;51.436;5.978;2024-03-17T00:46:45;39.68;37.80;44.49;;
67322;Laerm;57666;51.436;5.978;2024-03-17T00:46:55;41.69;37.40;52.98;;
67322;Laerm;57666;51.436;5.978;2024-03-17T00:47:06;39.91;38.11;45.15;;
67322;Laerm;57666;51.436;5.978;2024-03-17T00:47:18;39.84;37.76;43.88;;
67322;Laerm;57666;51.436;5.978;2024-03-17T00:47:28;45.99;38.28;65.29;;
67322;Laerm;57666;51.436;5.978;2024-03-17T00:47:39;43.53;37.91;51.00;;
67322;Laerm;57666;51.436;5.978;2024-03-17T00:47:50;46.54;38.31;53.45;;
67322;Laerm;57666;51.436;5.978;2024-03-17T00:48:00;46.83;40.93;52.02;;
67322;Laerm;57666;51.436;5.978;2024-03-17T00:48:11;40.69;38.27;48.54;;
67322;Laerm;57666;51.436;5.978;2024-03-17T00:48:21;39.83;37.86;42.44;;
67322;Laerm;57666;51.436;5.978;2024-03-17T00:48:31;39.97;37.76;42.19;;
67322;Laerm;57666;51.436;5.978;2024-03-17T00:48:42;40.16;38.04;46.39;;
67322;Laerm;57666;51.436;5.978;2024-03-17T00:48:52;39.97;37.75;43.20;;
67322;Laerm;57666;51.436;5.978;2024-03-17T00:49:02;39.96;37.39;45.51;;
67322;Laerm;57666;51.436;5.978;2024-03-17T00:49:13;39.72;36.96;43.07;;
67322;Laerm;57666;51.436;5.978;2024-03-17T00:49:23;39.14;37.24;41.48;;
67322;Laerm;57666;51.436;5.978;2024-03-17T00:49:33;39.43;37.56;41.63;;
67322;Laerm;57666;51.436;5.978;2024-03-17T00:49:44;38.81;36.89;40.96;;
67322;Laerm;57666;51.436;5.978;2024-03-17T00:49:54;39.61;37.66;41.80;;
67322;Laerm;57666;51.436;5.978;2024-03-17T00:50:05;39.74;37.75;42.27;;
67322;Laerm;57666;51.436;5.978;2024-03-17T00:50:17;39.98;37.35;42.76;;
67322;Laerm;57666;51.436;5.978;2024-03-17T00:50:27;40.13;37.29;45.86;;
67322;Laerm;57666;51.436;5.978;2024-03-17T00:50:38;40.66;37.51;43.83;;
67322;Laerm;57666;51.436;5.978;2024-03-17T00:50:54;40.66;37.64;47.23;;
67322;Laerm;57666;51.436;5.978;2024-03-17T00:51:04;40.93;37.68;48.66;;
67322;Laerm;57666;51.436;5.978;2024-03-17T00:51:15;40.16;38.34;44.05;;
67322;Laerm;57666;51.436;5.978;2024-03-17T00:51:26;40.26;38.18;48.76;;
67322;Laerm;57666;51.436;5.978;2024-03-17T00:51:36;39.54;36.76;42.69;;
67322;Laerm;57666;51.436;5.978;2024-03-17T00:51:46;39.51;37.22;43.12;;
67322;Laerm;57666;51.436;5.978;2024-03-17T00:51:59;40.29;37.41;43.73;;
67322;Laerm;57666;51.436;5.978;2024-03-17T00:52:09;39.63;37.50;42.57;;
67322;Laerm;57666;51.436;5.978;2024-03-17T00:52:20;39.44;37.48;42.28;;
67322;Laerm;57666;51.436;5.978;2024-03-17T00:52:30;39.55;37.90;42.64;;
67322;Laerm;57666;51.436;5.978;2024-03-17T00:52:41;39.06;37.18;41.80;;
67322;Laerm;57666;51.436;5.978;2024-03-17T00:52:51;39.40;37.51;44.32;;
67322;Laerm;57666;51.436;5.978;2024-03-17T00:53:01;39.57;37.34;44.39;;
67322;Laerm;57666;51.436;5.978;2024-03-17T00:53:13;39.62;37.13;41.67;;
67322;Laerm;57666;51.436;5.978;2024-03-17T00:53:24;39.85;37.54;42.37;;
67322;Laerm;57666;51.436;5.978;2024-03-17T00:53:41;39.95;37.67;52.06;;
67322;Laerm;57666;51.436;5.978;2024-03-17T00:53:51;39.35;37.45;42.90;;
67322;Laerm;57666;51.436;5.978;2024-03-17T00:54:02;51.86;38.14;67.93;;
67322;Laerm;57666;51.436;5.978;2024-03-17T00:54:12;46.55;37.40;61.28;;
67322;Laerm;57666;51.436;5.978;2024-03-17T00:54:23;40.55;37.74;46.07;;
67322;Laerm;57666;51.436;5.978;2024-03-17T00:54:33;41.97;37.66;52.48;;
67322;Laerm;57666;51.436;5.978;2024-03-17T00:54:46;47.28;38.02;58.20;;
67322;Laerm;57666;51.436;5.978;2024-03-17T00:54:57;41.64;37.90;53.70;;
67322;Laerm;57666;51.436;5.978;2024-03-17T00:55:08;41.62;38.29;48.90;;
67322;Laerm;57666;51.436;5.978;2024-03-17T00:55:20;42.35;38.04;52.93;;
67322;Laerm;57666;51.436;5.978;2024-03-17T00:55:31;44.73;38.26;62.10;;
67322;Laerm;57666;51.436;5.978;2024-03-17T00:55:42;40.75;37.42;47.99;;
67322;Laerm;57666;51.436;5.978;2024-03-17T00:55:53;40.97;37.48;48.92;;
67322;Laerm;57666;51.436;5.978;2024-03-17T00:56:03;39.44;37.38;44.44;;
67322;Laerm;57666;51.436;5.978;2024-03-17T00:56:14;45.66;36.90;63.55;;
67322;Laerm;57666;51.436;5.978;2024-03-17T00:56:25;45.62;37.82;59.89;;
67322;Laerm;57666;51.436;5.978;2024-03-17T00:56:37;40.76;36.95;51.74;;
67322;Laerm;57666;51.436;5.978;2024-03-17T00:56:48;45.03;37.67;65.90;;
67322;Laerm;57666;51.436;5.978;2024-03-17T00:56:58;44.14;38.38;58.87;;
67322;Laerm;57666;51.436;5.978;2024-03-17T00:57:08;41.13;38.18;49.07;;
67322;Laerm;57666;51.436;5.978;2024-03-17T00:57:19;40.68;37.67;47.77;;
67322;Laerm;57666;51.436;5.978;2024-03-17T00:57:29;41.66;37.94;53.10;;
67322;Laerm;57666;51.436;5.978;2024-03-17T00:57:40;41.12;37.94;51.47;;
67322;Laerm;57666;51.436;5.978;2024-03-17T00:57:50;40.33;38.15;44.11;;
67322;Laerm;57666;51.436;5.978;2024-03-17T00:58:01;41.71;37.88;49.55;;
67322;Laerm;57666;51.436;5.978;2024-03-17T00:58:14;51.00;37.72;64.26;;
67322;Laerm;57666;51.436;5.978;2024-03-17T00:58:25;48.21;37.96;66.56;;
67322;Laerm;57666;51.436;5.978;2024-03-17T00:58:35;41.00;38.16;49.00;;
67322;Laerm;57666;51.436;5.978;2024-03-17T00:58:48;42.21;38.09;51.05;;
67322;Laerm;57666;51.436;5.978;2024-03-17T00:59:01;42.11;38.47;51.66;;
67322;Laerm;57666;51.436;5.978;2024-03-17T00:59:12;43.96;39.71;52.55;;
67322;Laerm;57666;51.436;5.978;2024-03-17T00:59:22;40.05;37.55;44.04;;
67322;Laerm;57666;51.436;5.978;2024-03-17T00:59:32;40.75;37.75;49.07;;
67322;Laerm;57666;51.436;5.978;2024-03-17T00:59:43;41.00;38.01;46.08;;
67322;Laerm;57666;51.436;5.978;2024-03-17T00:59:56;40.71;38.32;44.18;;
67322;Laerm;57666;51.436;5.978;2024-03-17T01:00:07;40.20;37.90;43.03;;
67322;Laerm;57666;51.436;5.978;2024-03-17T01:00:20;41.39;37.28;49.96;;
67322;Laerm;57666;51.436;5.978;2024-03-17T01:00:30;39.77;37.44;45.35;;
67322;Laerm;57666;51.436;5.978;2024-03-17T01:00:43;39.14;37.35;41.62;;
67322;Laerm;57666;51.436;5.978;2024-03-17T01:00:53;39.09;37.34;41.17;;
67322;Laerm;57666;51.436;5.978;2024-03-17T01:01:06;39.10;37.36;43.43;;
67322;Laerm;57666;51.436;5.978;2024-03-17T01:01:17;39.97;37.98;42.39;;
67322;Laerm;57666;51.436;5.978;2024-03-17T01:01:29;40.30;37.84;42.74;;
67322;Laerm;57666;51.436;5.978;2024-03-17T01:01:39;40.18;37.66;43.59;;